sensor_id;sensor_type;location;lat;lon;timestamp;P1;durP1;ratioP1;P2;durP2;ratioP2
54458;SDS011;40368;49.350;8.152;2023-12-20T00:00:37;11;;;15;;
54458;SDS011;40368;49.350;8.152;2023-12-20T00:01:37;10;;;13;;
54458;SDS011;40368;49.350;8.152;2023-12-20T00:02:37;11;;;16;;
54458;SDS011;40368;49.350;8.152;2023-12-20T00:03:37;11;;;17;;
54458;SDS011;40368;49.350;8.152;2023-12-20T00:04:37;11;;;13;;
54458;SDS011;40368;49.350;8.152;2023-12-20T00:05:37;13;;;20;;
54458;SDS011;40368;49.350;8.152;2023-12-20T00:06:37;7;;;7;;
54458;SDS011;40368;49.350;8.152;2023-12-20T00:07:37;5;;;11;;
54458;SDS011;40368;49.350;8.152;2023-12-20T00:08:37;5;;;5;;
54458;SDS011;40368;49.350;8.152;2023-12-20T00:09:37;5;;;7;;
54458;SDS011;40368;49.350;8.152;2023-12-20T00:10:37;5;;;6;;
54458;SDS011;40368;49.350;8.152;2023-12-20T00:11:37;6;;;6;;
54458;SDS011;40368;49.350;8.152;2023-12-20T00:12:37;7;;;9;;
54458;SDS011;40368;49.350;8.152;2023-12-20T00:13:37;5;;;5;;
54458;SDS011;40368;49.350;8.152;2023-12-20T00:14:37;6;;;6;;
54458;SDS011;40368;49.350;8.152;2023-12-20T00:15:37;6;;;7;;
54458;SDS011;40368;49.350;8.152;2023-12-20T00:16:37;7;;;13;;
54458;SDS011;40368;49.350;8.152;2023-12-20T00:17:37;8;;;9;;
54458;SDS011;40368;49.350;8.152;2023-12-20T00:18:37;7;;;13;;
54458;SDS011;40368;49.350;8.152;2023-12-20T00:19:37;6;;;8;;
54458;SDS011;40368;49.350;8.152;2023-12-20T00:20:37;6;;;10;;
54458;SDS011;40368;49.350;8.152;2023-12-20T00:21:37;9;;;12;;
54458;SDS011;40368;49.350;8.152;2023-12-20T00:22:37;5;;;5;;
54458;SDS011;40368;49.350;8.152;2023-12-20T00:23:37;5;;;5;;
54458;SDS011;40368;49.350;8.152;2023-12-20T00:24:37;7;;;13;;
54458;SDS011;40368;49.350;8.152;2023-12-20T00:25:37;7;;;8;;
54458;SDS011;40368;49.350;8.152;2023-12-20T00:26:37;6;;;9;;
54458;SDS011;40368;49.350;8.152;2023-12-20T00:27:37;6;;;6;;
54458;SDS011;40368;49.350;8.152;2023-12-20T00:28:37;8;;;9;;
54458;SDS011;40368;49.350;8.152;2023-12-20T00:29:37;8;;;10;;
54458;SDS011;40368;49.350;8.152;2023-12-20T00:30:37;5;;;10;;
54458;SDS011;40368;49.350;8.152;2023-12-20T00:31:37;7;;;10;;
54458;SDS011;40368;49.350;8.152;2023-12-20T00:32:37;6;;;6;;
54458;SDS011;40368;49.350;8.152;2023-12-20T00:33:37;6;;;24;;
54458;SDS011;40368;49.350;8.152;2023-12-20T00:34:37;7;;;13;;
54458;SDS011;40368;49.350;8.152;2023-12-20T00:35:37;7;;;9;;
54458;SDS011;40368;49.350;8.152;2023-12-20T00:36:37;6;;;6;;
54458;SDS011;40368;49.350;8.152;2023-12-20T00:37:37;6;;;6;;
54458;SDS011;40368;49.350;8.152;2023-12-20T00:38:37;6;;;6;;
54458;SDS011;40368;49.350;8.152;2023-12-20T00:39:37;5;;;5;;
54458;SDS011;40368;49.350;8.152;2023-12-20T00:40:37;7;;;7;;
54458;SDS011;40368;49.350;8.152;2023-12-20T00:41:37;7;;;9;;
54458;SDS011;40368;49.350;8.152;2023-12-20T00:42:37;5;;;6;;
54458;SDS011;40368;49.350;8.152;2023-12-20T00:43:37;6;;;6;;
54458;SDS011;40368;49.350;8.152;2023-12-20T00:44:37;5;;;5;;
54458;SDS011;40368;49.350;8.152;2023-12-20T00:45:37;7;;;7;;
54458;SDS011;40368;49.350;8.152;2023-12-20T00:46:37;5;;;5;;
54458;SDS011;40368;49.350;8.152;2023-12-20T00:47:37;7;;;7;;
54458;SDS011;40368;49.350;8.152;2023-12-20T00:48:37;6;;;6;;
54458;SDS011;40368;49.350;8.152;2023-12-20T00:49:37;6;;;6;;
54458;SDS011;40368;49.350;8.152;2023-12-20T00:50:37;5;;;5;;
54458;SDS011;40368;49.350;8.152;2023-12-20T00:51:37;5;;;5;;
54458;SDS011;40368;49.350;8.152;2023-12-20T00:52:37;6;;;6;;
54458;SDS011;40368;49.350;8.152;2023-12-20T00:53:37;7;;;12;;
54458;SDS011;40368;49.350;8.152;2023-12-20T00:54:37;6;;;7;;
54458;SDS011;40368;49.350;8.152;2023-12-20T00:55:37;5;;;5;;
54458;SDS011;40368;49.350;8.152;2023-12-20T00:56:37;5;;;5;;
54458;SDS011;40368;49.350;8.152;2023-12-20T00:57:37;5;;;5;;
54458;SDS011;40368;49.350;8.152;2023-12-20T00:58:37;5;;;5;;
54458;SDS011;40368;49.350;8.152;2023-12-20T00:59:37;5;;;6;;
54458;SDS011;40368;49.350;8.152;2023-12-20T01:00:37;6;;;7;;
54458;SDS011;40368;49.350;8.152;2023-12-20T01:01:37;7;;;9;;
54458;SDS011;40368;49.350;8.152;2023-12-20T01:02:37;5;;;9;;
54458;SDS011;40368;49.350;8.152;2023-12-20T01:03:37;6;;;8;;
54458;SDS011;40368;49.350;8.152;2023-12-20T01:04:37;6;;;8;;
54458;SDS011;40368;49.350;8.152;2023-12-20T01:05:37;6;;;11;;
54458;SDS011;40368;49.350;8.152;2023-12-20T01:06:37;6;;;11;;
54458;SDS011;40368;49.350;8.152;2023-12-20T01:07:37;5;;;9;;
54458;SDS011;40368;49.350;8.152;2023-12-20T01:08:37;6;;;6;;
54458;SDS011;40368;49.350;8.152;2023-12-20T01:09:37;5;;;6;;
54458;SDS011;40368;49.350;8.152;2023-12-20T01:10:37;6;;;6;;
54458;SDS011;40368;49.350;8.152;2023-12-20T01:11:37;6;;;9;;
54458;SDS011;40368;49.350;8.152;2023-12-20T01:12:37;5;;;5;;
54458;SDS011;40368;49.350;8.152;2023-12-20T01:13:37;5;;;11;;
54458;SDS011;40368;49.350;8.152;2023-12-20T01:14:37;8;;;10;;
54458;SDS011;40368;49.350;8.152;2023-12-20T01:15:37;6;;;9;;
54458;SDS011;40368;49.350;8.152;2023-12-20T01:16:37;6;;;7;;
54458;SDS011;40368;49.350;8.152;2023-12-20T01:17:37;4;;;4;;
54458;SDS011;40368;49.350;8.152;2023-12-20T01:18:37;5;;;8;;
54458;SDS011;40368;49.350;8.152;2023-12-20T01:19:37;7;;;11;;
54458;SDS011;40368;49.350;8.152;2023-12-20T01:20:37;5;;;12;;
54458;SDS011;40368;49.350;8.152;2023-12-20T01:21:37;5;;;7;;
54458;SDS011;40368;49.350;8.152;2023-12-20T01:22:37;5;;;5;;
54458;SDS011;40368;49.350;8.152;2023-12-20T01:23:37;7;;;8;;
54458;SDS011;40368;49.350;8.152;2023-12-20T01:24:37;9;;;15;;
54458;SDS011;40368;49.350;8.152;2023-12-20T01:25:37;5;;;8;;
54458;SDS011;40368;49.350;8.152;2023-12-20T01:26:37;5;;;5;;
54458;SDS011;40368;49.350;8.152;2023-12-20T01:27:37;6;;;6;;
54458;SDS011;40368;49.350;8.152;2023-12-20T01:28:37;6;;;6;;
54458;SDS011;40368;49.350;8.152;2023-12-20T01:29:37;5;;;5;;
54458;SDS011;40368;49.350;8.152;2023-12-20T01:30:37;5;;;5;;
54458;SDS011;40368;49.350;8.152;2023-12-20T01:31:37;5;;;6;;
54458;SDS011;40368;49.350;8.152;2023-12-20T01:32:37;5;;;5;;
54458;SDS011;40368;49.350;8.152;2023-12-20T01:33:37;5;;;6;;
54458;SDS011;40368;49.350;8.152;2023-12-20T01:34:37;5;;;5;;
54458;SDS011;40368;49.350;8.152;2023-12-20T01:35:37;5;;;6;;
54458;SDS011;40368;49.350;8.152;2023-12-20T01:36:37;5;;;6;;
54458;SDS011;40368;49.350;8.152;2023-12-20T01:37:37;4;;;5;;
54458;SDS011;40368;49.350;8.152;2023-12-20T01:38:37;6;;;6;;
54458;SDS011;40368;49.350;8.152;2023-12-20T01:39:37;5;;;7;;
54458;SDS011;40368;49.350;8.152;2023-12-20T01:40:37;5;;;5;;
54458;SDS011;40368;49.350;8.152;2023-12-20T01:41:37;5;;;5;;
54458;SDS011;40368;49.350;8.152;2023-12-20T01:42:37;6;;;7;;
54458;SDS011;40368;49.350;8.152;2023-12-20T01:43:37;5;;;5;;
54458;SDS011;40368;49.350;8.152;2023-12-20T01:44:37;6;;;9;;
54458;SDS011;40368;49.350;8.152;2023-12-20T01:45:38;5;;;6;;
54458;SDS011;40368;49.350;8.152;2023-12-20T01:46:37;5;;;5;;
54458;SDS011;40368;49.350;8.152;2023-12-20T01:47:37;5;;;9;;
54458;SDS011;40368;49.350;8.152;2023-12-20T01:48:37;5;;;5;;
54458;SDS011;40368;49.350;8.152;2023-12-20T01:49:37;5;;;5;;
54458;SDS011;40368;49.350;8.152;2023-12-20T01:50:37;5;;;5;;
54458;SDS011;40368;49.350;8.152;2023-12-20T01:51:37;5;;;5;;
54458;SDS011;40368;49.350;8.152;2023-12-20T01:52:37;5;;;5;;
54458;SDS011;40368;49.350;8.152;2023-12-20T01:53:37;5;;;5;;
54458;SDS011;40368;49.350;8.152;2023-12-20T01:54:37;6;;;6;;
54458;SDS011;40368;49.350;8.152;2023-12-20T01:55:38;6;;;7;;
54458;SDS011;40368;49.350;8.152;2023-12-20T01:56:37;6;;;12;;
54458;SDS011;40368;49.350;8.152;2023-12-20T01:57:37;7;;;8;;
54458;SDS011;40368;49.350;8.152;2023-12-20T01:58:37;6;;;7;;
54458;SDS011;40368;49.350;8.152;2023-12-20T01:59:37;6;;;8;;
54458;SDS011;40368;49.350;8.152;2023-12-20T02:00:37;8;;;8;;
54458;SDS011;40368;49.350;8.152;2023-12-20T02:01:37;5;;;5;;
54458;SDS011;40368;49.350;8.152;2023-12-20T02:02:37;5;;;5;;
54458;SDS011;40368;49.350;8.152;2023-12-20T02:03:37;5;;;5;;
54458;SDS011;40368;49.350;8.152;2023-12-20T02:04:37;5;;;5;;
54458;SDS011;40368;49.350;8.152;2023-12-20T02:05:37;5;;;5;;
54458;SDS011;40368;49.350;8.152;2023-12-20T02:06:37;6;;;6;;
54458;SDS011;40368;49.350;8.152;2023-12-20T02:07:37;4;;;4;;
54458;SDS011;40368;49.350;8.152;2023-12-20T02:08:37;6;;;9;;
54458;SDS011;40368;49.350;8.152;2023-12-20T02:09:37;5;;;5;;
54458;SDS011;40368;49.350;8.152;2023-12-20T02:10:37;6;;;7;;
54458;SDS011;40368;49.350;8.152;2023-12-20T02:11:37;6;;;6;;
54458;SDS011;40368;49.350;8.152;2023-12-20T02:12:37;5;;;5;;
54458;SDS011;40368;49.350;8.152;2023-12-20T02:13:37;5;;;5;;
54458;SDS011;40368;49.350;8.152;2023-12-20T02:14:37;5;;;6;;
54458;SDS011;40368;49.350;8.152;2023-12-20T02:15:37;6;;;7;;
54458;SDS011;40368;49.350;8.152;2023-12-20T02:16:37;5;;;5;;
54458;SDS011;40368;49.350;8.152;2023-12-20T02:18:37;5;;;5;;
54458;SDS011;40368;49.350;8.152;2023-12-20T02:19:37;5;;;5;;
54458;SDS011;40368;49.350;8.152;2023-12-20T02:20:37;5;;;5;;
54458;SDS011;40368;49.350;8.152;2023-12-20T02:21:37;6;;;7;;
54458;SDS011;40368;49.350;8.152;2023-12-20T02:22:37;4;;;4;;
54458;SDS011;40368;49.350;8.152;2023-12-20T02:23:37;6;;;18;;
54458;SDS011;40368;49.350;8.152;2023-12-20T02:24:37;5;;;5;;
54458;SDS011;40368;49.350;8.152;2023-12-20T02:25:37;5;;;5;;
54458;SDS011;40368;49.350;8.152;2023-12-20T02:26:37;6;;;23;;
54458;SDS011;40368;49.350;8.152;2023-12-20T02:27:37;5;;;5;;
54458;SDS011;40368;49.350;8.152;2023-12-20T02:28:37;5;;;5;;
54458;SDS011;40368;49.350;8.152;2023-12-20T02:29:37;5;;;5;;
54458;SDS011;40368;49.350;8.152;2023-12-20T02:30:37;5;;;5;;
54458;SDS011;40368;49.350;8.152;2023-12-20T02:31:37;6;;;6;;
54458;SDS011;40368;49.350;8.152;2023-12-20T02:32:37;6;;;14;;
54458;SDS011;40368;49.350;8.152;2023-12-20T02:33:37;7;;;8;;
54458;SDS011;40368;49.350;8.152;2023-12-20T02:34:37;5;;;5;;
54458;SDS011;40368;49.350;8.152;2023-12-20T02:35:37;6;;;6;;
54458;SDS011;40368;49.350;8.152;2023-12-20T02:36:37;6;;;6;;
54458;SDS011;40368;49.350;8.152;2023-12-20T02:37:37;6;;;9;;
54458;SDS011;40368;49.350;8.152;2023-12-20T02:38:37;5;;;5;;
54458;SDS011;40368;49.350;8.152;2023-12-20T02:39:37;6;;;6;;
54458;SDS011;40368;49.350;8.152;2023-12-20T02:40:37;7;;;7;;
54458;SDS011;40368;49.350;8.152;2023-12-20T02:41:37;6;;;6;;
54458;SDS011;40368;49.350;8.152;2023-12-20T02:42:37;6;;;6;;
54458;SDS011;40368;49.350;8.152;2023-12-20T02:43:37;6;;;6;;
54458;SDS011;40368;49.350;8.152;2023-12-20T02:44:37;7;;;12;;
54458;SDS011;40368;49.350;8.152;2023-12-20T02:45:37;5;;;5;;
54458;SDS011;40368;49.350;8.152;2023-12-20T02:46:37;6;;;6;;
54458;SDS011;40368;49.350;8.152;2023-12-20T02:47:37;6;;;7;;
54458;SDS011;40368;49.350;8.152;2023-12-20T02:48:37;6;;;7;;
54458;SDS011;40368;49.350;8.152;2023-12-20T02:49:37;7;;;7;;
54458;SDS011;40368;49.350;8.152;2023-12-20T02:50:37;7;;;7;;
54458;SDS011;40368;49.350;8.152;2023-12-20T02:51:37;6;;;6;;
54458;SDS011;40368;49.350;8.152;2023-12-20T02:52:37;7;;;7;;
54458;SDS011;40368;49.350;8.152;2023-12-20T02:53:37;7;;;7;;
54458;SDS011;40368;49.350;8.152;2023-12-20T02:54:37;6;;;15;;
54458;SDS011;40368;49.350;8.152;2023-12-20T02:55:37;6;;;6;;
54458;SDS011;40368;49.350;8.152;2023-12-20T02:56:37;6;;;6;;
54458;SDS011;40368;49.350;8.152;2023-12-20T02:57:37;6;;;7;;
54458;SDS011;40368;49.350;8.152;2023-12-20T02:58:37;6;;;7;;
54458;SDS011;40368;49.350;8.152;2023-12-20T02:59:37;9;;;10;;
54458;SDS011;40368;49.350;8.152;2023-12-20T03:00:37;5;;;5;;
54458;SDS011;40368;49.350;8.152;2023-12-20T03:01:41;6;;;9;;
54458;SDS011;40368;49.350;8.152;2023-12-20T03:02:37;5;;;5;;
54458;SDS011;40368;49.350;8.152;2023-12-20T03:03:37;6;;;7;;
54458;SDS011;40368;49.350;8.152;2023-12-20T03:04:37;6;;;6;;
54458;SDS011;40368;49.350;8.152;2023-12-20T03:05:37;6;;;6;;
54458;SDS011;40368;49.350;8.152;2023-12-20T03:06:37;6;;;9;;
54458;SDS011;40368;49.350;8.152;2023-12-20T03:07:37;6;;;8;;
54458;SDS011;40368;49.350;8.152;2023-12-20T03:08:37;7;;;7;;
54458;SDS011;40368;49.350;8.152;2023-12-20T03:09:37;6;;;6;;
54458;SDS011;40368;49.350;8.152;2023-12-20T03:10:37;8;;;12;;
54458;SDS011;40368;49.350;8.152;2023-12-20T03:11:37;7;;;25;;
54458;SDS011;40368;49.350;8.152;2023-12-20T03:12:37;6;;;6;;
54458;SDS011;40368;49.350;8.152;2023-12-20T03:13:37;7;;;9;;
54458;SDS011;40368;49.350;8.152;2023-12-20T03:14:37;6;;;7;;
54458;SDS011;40368;49.350;8.152;2023-12-20T03:15:37;6;;;12;;
54458;SDS011;40368;49.350;8.152;2023-12-20T03:16:37;7;;;8;;
54458;SDS011;40368;49.350;8.152;2023-12-20T03:17:37;7;;;7;;
54458;SDS011;40368;49.350;8.152;2023-12-20T03:18:37;7;;;7;;
54458;SDS011;40368;49.350;8.152;2023-12-20T03:19:37;7;;;10;;
54458;SDS011;40368;49.350;8.152;2023-12-20T03:20:37;7;;;8;;
54458;SDS011;40368;49.350;8.152;2023-12-20T03:21:37;7;;;7;;
54458;SDS011;40368;49.350;8.152;2023-12-20T03:22:37;7;;;8;;
54458;SDS011;40368;49.350;8.152;2023-12-20T03:23:37;7;;;7;;
54458;SDS011;40368;49.350;8.152;2023-12-20T03:24:37;8;;;9;;
54458;SDS011;40368;49.350;8.152;2023-12-20T03:25:37;7;;;8;;
54458;SDS011;40368;49.350;8.152;2023-12-20T03:26:37;9;;;9;;
54458;SDS011;40368;49.350;8.152;2023-12-20T03:27:37;8;;;15;;
54458;SDS011;40368;49.350;8.152;2023-12-20T03:28:37;7;;;8;;
54458;SDS011;40368;49.350;8.152;2023-12-20T03:29:37;8;;;14;;
54458;SDS011;40368;49.350;8.152;2023-12-20T03:30:37;9;;;12;;
54458;SDS011;40368;49.350;8.152;2023-12-20T03:31:37;8;;;8;;
54458;SDS011;40368;49.350;8.152;2023-12-20T03:32:38;9;;;9;;
54458;SDS011;40368;49.350;8.152;2023-12-20T03:33:37;9;;;9;;
54458;SDS011;40368;49.350;8.152;2023-12-20T03:34:37;9;;;17;;
54458;SDS011;40368;49.350;8.152;2023-12-20T03:35:37;9;;;12;;
54458;SDS011;40368;49.350;8.152;2023-12-20T03:36:37;10;;;11;;
54458;SDS011;40368;49.350;8.152;2023-12-20T03:37:37;9;;;15;;
54458;SDS011;40368;49.350;8.152;2023-12-20T03:38:37;8;;;9;;
54458;SDS011;40368;49.350;8.152;2023-12-20T03:39:37;10;;;15;;
54458;SDS011;40368;49.350;8.152;2023-12-20T03:40:37;11;;;15;;
54458;SDS011;40368;49.350;8.152;2023-12-20T03:41:37;16;;;19;;
54458;SDS011;40368;49.350;8.152;2023-12-20T03:42:37;10;;;13;;
54458;SDS011;40368;49.350;8.152;2023-12-20T03:43:37;10;;;11;;
54458;SDS011;40368;49.350;8.152;2023-12-20T03:44:38;8;;;9;;
54458;SDS011;40368;49.350;8.152;2023-12-20T03:45:37;11;;;18;;
54458;SDS011;40368;49.350;8.152;2023-12-20T03:46:37;11;;;15;;
54458;SDS011;40368;49.350;8.152;2023-12-20T03:47:37;12;;;17;;
54458;SDS011;40368;49.350;8.152;2023-12-20T03:48:37;11;;;23;;
54458;SDS011;40368;49.350;8.152;2023-12-20T03:49:37;14;;;19;;
54458;SDS011;40368;49.350;8.152;2023-12-20T03:50:37;12;;;14;;
54458;SDS011;40368;49.350;8.152;2023-12-20T03:51:37;13;;;23;;
54458;SDS011;40368;49.350;8.152;2023-12-20T03:52:37;13;;;16;;
54458;SDS011;40368;49.350;8.152;2023-12-20T03:53:37;13;;;19;;
54458;SDS011;40368;49.350;8.152;2023-12-20T03:54:37;12;;;15;;
54458;SDS011;40368;49.350;8.152;2023-12-20T03:55:37;15;;;30;;
54458;SDS011;40368;49.350;8.152;2023-12-20T03:56:37;14;;;18;;
54458;SDS011;40368;49.350;8.152;2023-12-20T03:57:37;14;;;22;;
54458;SDS011;40368;49.350;8.152;2023-12-20T03:58:37;14;;;25;;
54458;SDS011;40368;49.350;8.152;2023-12-20T03:59:37;15;;;22;;
54458;SDS011;40368;49.350;8.152;2023-12-20T04:00:37;14;;;25;;
54458;SDS011;40368;49.350;8.152;2023-12-20T04:01:37;12;;;17;;
54458;SDS011;40368;49.350;8.152;2023-12-20T04:02:37;16;;;32;;
54458;SDS011;40368;49.350;8.152;2023-12-20T04:03:37;15;;;18;;
54458;SDS011;40368;49.350;8.152;2023-12-20T04:04:37;15;;;22;;
54458;SDS011;40368;49.350;8.152;2023-12-20T04:05:37;13;;;17;;
54458;SDS011;40368;49.350;8.152;2023-12-20T04:06:37;15;;;19;;
54458;SDS011;40368;49.350;8.152;2023-12-20T04:07:37;17;;;26;;
54458;SDS011;40368;49.350;8.152;2023-12-20T04:08:37;14;;;22;;
54458;SDS011;40368;49.350;8.152;2023-12-20T04:09:37;14;;;17;;
54458;SDS011;40368;49.350;8.152;2023-12-20T04:10:37;15;;;22;;
54458;SDS011;40368;49.350;8.152;2023-12-20T04:11:37;13;;;19;;
54458;SDS011;40368;49.350;8.152;2023-12-20T04:12:37;16;;;20;;
54458;SDS011;40368;49.350;8.152;2023-12-20T04:13:37;16;;;27;;
54458;SDS011;40368;49.350;8.152;2023-12-20T04:14:37;15;;;22;;
54458;SDS011;40368;49.350;8.152;2023-12-20T04:15:37;15;;;22;;
54458;SDS011;40368;49.350;8.152;2023-12-20T04:16:37;18;;;32;;
54458;SDS011;40368;49.350;8.152;2023-12-20T04:17:37;15;;;25;;
54458;SDS011;40368;49.350;8.152;2023-12-20T04:18:37;14;;;27;;
54458;SDS011;40368;49.350;8.152;2023-12-20T04:19:37;15;;;19;;
54458;SDS011;40368;49.350;8.152;2023-12-20T04:20:37;18;;;24;;
54458;SDS011;40368;49.350;8.152;2023-12-20T04:21:37;15;;;22;;
54458;SDS011;40368;49.350;8.152;2023-12-20T04:22:37;14;;;16;;
54458;SDS011;40368;49.350;8.152;2023-12-20T04:23:37;17;;;22;;
54458;SDS011;40368;49.350;8.152;2023-12-20T04:24:37;14;;;23;;
54458;SDS011;40368;49.350;8.152;2023-12-20T04:25:37;15;;;22;;
54458;SDS011;40368;49.350;8.152;2023-12-20T04:26:37;13;;;19;;
54458;SDS011;40368;49.350;8.152;2023-12-20T04:27:37;14;;;16;;
54458;SDS011;40368;49.350;8.152;2023-12-20T04:28:37;11;;;17;;
54458;SDS011;40368;49.350;8.152;2023-12-20T04:29:37;15;;;23;;
54458;SDS011;40368;49.350;8.152;2023-12-20T04:30:37;15;;;19;;
54458;SDS011;40368;49.350;8.152;2023-12-20T04:31:37;13;;;17;;
54458;SDS011;40368;49.350;8.152;2023-12-20T04:32:37;16;;;22;;
54458;SDS011;40368;49.350;8.152;2023-12-20T04:33:37;13;;;16;;
54458;SDS011;40368;49.350;8.152;2023-12-20T04:34:37;14;;;18;;
54458;SDS011;40368;49.350;8.152;2023-12-20T04:35:37;16;;;23;;
54458;SDS011;40368;49.350;8.152;2023-12-20T04:36:37;12;;;16;;
54458;SDS011;40368;49.350;8.152;2023-12-20T04:37:37;16;;;22;;
54458;SDS011;40368;49.350;8.152;2023-12-20T04:38:37;15;;;22;;
54458;SDS011;40368;49.350;8.152;2023-12-20T04:39:37;14;;;21;;
54458;SDS011;40368;49.350;8.152;2023-12-20T04:40:37;17;;;27;;
54458;SDS011;40368;49.350;8.152;2023-12-20T04:41:37;17;;;34;;
54458;SDS011;40368;49.350;8.152;2023-12-20T04:42:37;17;;;25;;
54458;SDS011;40368;49.350;8.152;2023-12-20T04:43:37;16;;;23;;
54458;SDS011;40368;49.350;8.152;2023-12-20T04:44:37;15;;;29;;
54458;SDS011;40368;49.350;8.152;2023-12-20T04:45:37;17;;;24;;
54458;SDS011;40368;49.350;8.152;2023-12-20T04:46:37;13;;;17;;
54458;SDS011;40368;49.350;8.152;2023-12-20T04:47:37;16;;;25;;
54458;SDS011;40368;49.350;8.152;2023-12-20T04:48:37;16;;;22;;
54458;SDS011;40368;49.350;8.152;2023-12-20T04:49:37;16;;;27;;
54458;SDS011;40368;49.350;8.152;2023-12-20T04:50:37;12;;;19;;
54458;SDS011;40368;49.350;8.152;2023-12-20T04:51:37;15;;;19;;
54458;SDS011;40368;49.350;8.152;2023-12-20T04:52:37;16;;;24;;
54458;SDS011;40368;49.350;8.152;2023-12-20T04:53:37;14;;;25;;
54458;SDS011;40368;49.350;8.152;2023-12-20T04:54:37;16;;;24;;
54458;SDS011;40368;49.350;8.152;2023-12-20T04:55:37;16;;;23;;
54458;SDS011;40368;49.350;8.152;2023-12-20T04:56:37;16;;;26;;
54458;SDS011;40368;49.350;8.152;2023-12-20T04:57:37;16;;;24;;
54458;SDS011;40368;49.350;8.152;2023-12-20T04:58:37;16;;;23;;
54458;SDS011;40368;49.350;8.152;2023-12-20T04:59:37;18;;;31;;
54458;SDS011;40368;49.350;8.152;2023-12-20T05:00:37;16;;;32;;
54458;SDS011;40368;49.350;8.152;2023-12-20T05:01:37;17;;;34;;
54458;SDS011;40368;49.350;8.152;2023-12-20T05:02:37;17;;;27;;
54458;SDS011;40368;49.350;8.152;2023-12-20T05:03:37;16;;;31;;
54458;SDS011;40368;49.350;8.152;2023-12-20T05:04:37;17;;;25;;
54458;SDS011;40368;49.350;8.152;2023-12-20T05:05:37;13;;;26;;
54458;SDS011;40368;49.350;8.152;2023-12-20T05:06:37;14;;;26;;
54458;SDS011;40368;49.350;8.152;2023-12-20T05:07:37;15;;;22;;
54458;SDS011;40368;49.350;8.152;2023-12-20T05:08:37;15;;;21;;
54458;SDS011;40368;49.350;8.152;2023-12-20T05:09:37;15;;;23;;
54458;SDS011;40368;49.350;8.152;2023-12-20T05:10:37;16;;;21;;
54458;SDS011;40368;49.350;8.152;2023-12-20T05:11:37;18;;;28;;
54458;SDS011;40368;49.350;8.152;2023-12-20T05:12:37;16;;;25;;
54458;SDS011;40368;49.350;8.152;2023-12-20T05:13:37;14;;;20;;
54458;SDS011;40368;49.350;8.152;2023-12-20T05:14:37;15;;;21;;
54458;SDS011;40368;49.350;8.152;2023-12-20T05:15:37;14;;;23;;
54458;SDS011;40368;49.350;8.152;2023-12-20T05:16:37;16;;;40;;
54458;SDS011;40368;49.350;8.152;2023-12-20T05:17:37;14;;;24;;
54458;SDS011;40368;49.350;8.152;2023-12-20T05:18:37;15;;;23;;
54458;SDS011;40368;49.350;8.152;2023-12-20T05:19:37;14;;;21;;
54458;SDS011;40368;49.350;8.152;2023-12-20T05:20:37;13;;;20;;
54458;SDS011;40368;49.350;8.152;2023-12-20T05:21:37;17;;;25;;
54458;SDS011;40368;49.350;8.152;2023-12-20T05:22:37;13;;;20;;
54458;SDS011;40368;49.350;8.152;2023-12-20T05:23:37;14;;;19;;
54458;SDS011;40368;49.350;8.152;2023-12-20T05:24:37;14;;;17;;
54458;SDS011;40368;49.350;8.152;2023-12-20T05:25:37;15;;;24;;
54458;SDS011;40368;49.350;8.152;2023-12-20T05:26:37;12;;;25;;
54458;SDS011;40368;49.350;8.152;2023-12-20T05:27:37;13;;;23;;
54458;SDS011;40368;49.350;8.152;2023-12-20T05:28:37;13;;;21;;
54458;SDS011;40368;49.350;8.152;2023-12-20T05:29:37;16;;;30;;
54458;SDS011;40368;49.350;8.152;2023-12-20T05:30:37;16;;;23;;
54458;SDS011;40368;49.350;8.152;2023-12-20T05:31:37;14;;;18;;
54458;SDS011;40368;49.350;8.152;2023-12-20T05:32:37;14;;;29;;
54458;SDS011;40368;49.350;8.152;2023-12-20T05:33:37;13;;;21;;
54458;SDS011;40368;49.350;8.152;2023-12-20T05:34:37;13;;;20;;
54458;SDS011;40368;49.350;8.152;2023-12-20T05:35:37;10;;;13;;
54458;SDS011;40368;49.350;8.152;2023-12-20T05:36:37;12;;;22;;
54458;SDS011;40368;49.350;8.152;2023-12-20T05:37:37;13;;;26;;
54458;SDS011;40368;49.350;8.152;2023-12-20T05:38:37;11;;;18;;
54458;SDS011;40368;49.350;8.152;2023-12-20T05:39:37;13;;;15;;
54458;SDS011;40368;49.350;8.152;2023-12-20T05:40:37;14;;;20;;
54458;SDS011;40368;49.350;8.152;2023-12-20T05:41:37;15;;;21;;
54458;SDS011;40368;49.350;8.152;2023-12-20T05:42:37;12;;;16;;
54458;SDS011;40368;49.350;8.152;2023-12-20T05:43:37;14;;;22;;
54458;SDS011;40368;49.350;8.152;2023-12-20T05:44:37;13;;;19;;
54458;SDS011;40368;49.350;8.152;2023-12-20T05:45:37;11;;;15;;
54458;SDS011;40368;49.350;8.152;2023-12-20T05:46:37;14;;;21;;
54458;SDS011;40368;49.350;8.152;2023-12-20T05:47:37;14;;;23;;
54458;SDS011;40368;49.350;8.152;2023-12-20T05:48:37;14;;;17;;
54458;SDS011;40368;49.350;8.152;2023-12-20T05:49:37;14;;;22;;
54458;SDS011;40368;49.350;8.152;2023-12-20T05:50:37;13;;;19;;
54458;SDS011;40368;49.350;8.152;2023-12-20T05:51:37;14;;;21;;
54458;SDS011;40368;49.350;8.152;2023-12-20T05:52:37;15;;;19;;
54458;SDS011;40368;49.350;8.152;2023-12-20T05:53:37;15;;;20;;
54458;SDS011;40368;49.350;8.152;2023-12-20T05:54:37;13;;;20;;
54458;SDS011;40368;49.350;8.152;2023-12-20T05:55:37;13;;;23;;
54458;SDS011;40368;49.350;8.152;2023-12-20T05:56:37;9;;;13;;
54458;SDS011;40368;49.350;8.152;2023-12-20T05:57:37;9;;;14;;
54458;SDS011;40368;49.350;8.152;2023-12-20T05:58:38;14;;;18;;
54458;SDS011;40368;49.350;8.152;2023-12-20T05:59:37;16;;;27;;
54458;SDS011;40368;49.350;8.152;2023-12-20T06:00:37;14;;;16;;
54458;SDS011;40368;49.350;8.152;2023-12-20T06:01:37;11;;;14;;
54458;SDS011;40368;49.350;8.152;2023-12-20T06:02:37;15;;;24;;
54458;SDS011;40368;49.350;8.152;2023-12-20T06:03:37;16;;;23;;
54458;SDS011;40368;49.350;8.152;2023-12-20T06:04:37;15;;;19;;
54458;SDS011;40368;49.350;8.152;2023-12-20T06:05:37;14;;;19;;
54458;SDS011;40368;49.350;8.152;2023-12-20T06:06:40;15;;;19;;
54458;SDS011;40368;49.350;8.152;2023-12-20T06:07:37;15;;;25;;
54458;SDS011;40368;49.350;8.152;2023-12-20T06:08:37;14;;;21;;
54458;SDS011;40368;49.350;8.152;2023-12-20T06:09:37;14;;;20;;
54458;SDS011;40368;49.350;8.152;2023-12-20T06:10:37;15;;;21;;
54458;SDS011;40368;49.350;8.152;2023-12-20T06:11:37;16;;;30;;
54458;SDS011;40368;49.350;8.152;2023-12-20T06:12:39;17;;;32;;
54458;SDS011;40368;49.350;8.152;2023-12-20T06:13:37;18;;;27;;
54458;SDS011;40368;49.350;8.152;2023-12-20T06:14:37;15;;;22;;
54458;SDS011;40368;49.350;8.152;2023-12-20T06:15:37;20;;;45;;
54458;SDS011;40368;49.350;8.152;2023-12-20T06:16:37;16;;;25;;
54458;SDS011;40368;49.350;8.152;2023-12-20T06:17:37;17;;;31;;
54458;SDS011;40368;49.350;8.152;2023-12-20T06:18:37;17;;;28;;
54458;SDS011;40368;49.350;8.152;2023-12-20T06:19:37;17;;;26;;
54458;SDS011;40368;49.350;8.152;2023-12-20T06:21:37;18;;;27;;
54458;SDS011;40368;49.350;8.152;2023-12-20T06:22:37;16;;;27;;
54458;SDS011;40368;49.350;8.152;2023-12-20T06:23:37;17;;;42;;
54458;SDS011;40368;49.350;8.152;2023-12-20T06:24:37;15;;;23;;
54458;SDS011;40368;49.350;8.152;2023-12-20T06:25:37;15;;;19;;
54458;SDS011;40368;49.350;8.152;2023-12-20T06:26:37;18;;;26;;
54458;SDS011;40368;49.350;8.152;2023-12-20T06:27:37;17;;;30;;
54458;SDS011;40368;49.350;8.152;2023-12-20T06:28:37;17;;;32;;
54458;SDS011;40368;49.350;8.152;2023-12-20T06:29:37;16;;;20;;
54458;SDS011;40368;49.350;8.152;2023-12-20T06:30:37;17;;;26;;
54458;SDS011;40368;49.350;8.152;2023-12-20T06:31:37;18;;;22;;
54458;SDS011;40368;49.350;8.152;2023-12-20T06:32:37;17;;;35;;
54458;SDS011;40368;49.350;8.152;2023-12-20T06:33:37;17;;;37;;